Time;durP1;ratioP1;P1;durP2;ratioP2;P2;SDS_P1;SDS_P2;PMS_P1;PMS_P2;Temp;Humidity;BMP_temperature;BMP_pressure;BME280_temperature;BME280_humidity;BME280_pressure;Samples;Min_cycle;Max_cycle;Signal;HPM_P1;HPM_P2
2023/06/29 00:00:50;;;;;;;0.00;0.00;;;;;;;;;;5064421;28;20262;-78
2023/06/29 00:03:17;;;;;;;0.10;0.10;;;;;;;;;;5087234;28;20237;-78
2023/06/29 00:05:45;;;;;;;0.00;0.00;;;;;;;;;;5064418;28;20247;-78
2023/06/29 00:08:13;;;;;;;0.00;0.00;;;;;;;;;;5086780;28;20231;-78
2023/06/29 00:10:40;;;;;;;0.00;0.00;;;;;;;;;;5063118;28;20241;-78
2023/06/29 00:13:06;;;;;;;0.10;0.10;;;;;;;;;;5088301;28;20218;-78
2023/06/29 00:15:32;;;;;;;0.10;0.10;;;;;;;;;;5061060;28;20242;-78
2023/06/29 00:17:59;;;;;;;0.10;0.10;;;;;;;;;;5090359;28;20206;-78
2023/06/29 00:20:28;;;;;;;0.08;0.08;;;;;;;;;;5059357;28;20283;-78
2023/06/29 00:22:55;;;;;;;0.00;0.00;;;;;;;;;;5090992;28;20232;-78
2023/06/29 00:25:22;;;;;;;0.00;0.00;;;;;;;;;;5058004;28;20277;-78
2023/06/29 00:27:49;;;;;;;0.00;0.00;;;;;;;;;;5092962;28;20280;-78
2023/06/29 00:30:15;;;;;;;0.05;0.05;;;;;;;;;;5056033;28;20206;-78
2023/06/29 00:32:41;;;;;;;0.00;0.00;;;;;;;;;;5094609;28;20268;-78
2023/06/29 00:35:08;;;;;;;0.52;0.52;;;;;;;;;;5059915;28;20206;-78
2023/06/29 00:37:35;;;;;;;0.00;0.00;;;;;;;;;;5096143;28;20222;-78
2023/06/29 00:40:01;;;;;;;0.00;0.00;;;;;;;;;;5064394;28;20449;-78
2023/06/29 00:42:29;;;;;;;0.10;0.10;;;;;;;;;;5086429;28;20545;-78
2023/06/29 00:44:55;;;;;;;0.10;0.10;;;;;;;;;;5064026;28;20271;-78
2023/06/29 00:47:22;;;;;;;0.10;0.10;;;;;;;;;;5086326;28;20267;-78
2023/06/29 00:49:48;;;;;;;0.00;0.00;;;;;;;;;;5064182;28;20472;-78
2023/06/29 00:52:14;;;;;;;0.10;0.10;;;;;;;;;;5086039;28;20303;-78
2023/06/29 00:54:41;;;;;;;0.10;0.10;;;;;;;;;;5063915;28;20206;-78
2023/06/29 00:57:08;;;;;;;0.08;0.08;;;;;;;;;;5086059;28;20424;-78
2023/06/29 00:59:36;;;;;;;0.10;0.10;;;;;;;;;;5063991;28;20221;-78
2023/06/29 01:02:02;;;;;;;0.00;0.00;;;;;;;;;;5084526;28;20271;-78
2023/06/29 01:04:29;;;;;;;0.10;0.10;;;;;;;;;;5065288;28;20212;-78
2023/06/29 01:06:57;;;;;;;0.00;0.00;;;;;;;;;;5082459;28;20309;-78
2023/06/29 01:09:24;;;;;;;0.05;0.05;;;;;;;;;;5066251;28;20245;-78
2023/06/29 01:11:51;;;;;;;0.00;0.00;;;;;;;;;;5081023;28;20324;-78
2023/06/29 01:14:18;;;;;;;0.00;0.00;;;;;;;;;;5068222;28;20562;-78
2023/06/29 01:16:47;;;;;;;0.10;0.10;;;;;;;;;;5079552;28;20245;-77
2023/06/29 01:19:17;;;;;;;0.03;0.03;;;;;;;;;;5069327;28;20278;-78
2023/06/29 01:21:49;;;;;;;0.10;0.10;;;;;;;;;;5079251;28;20245;-78
2023/06/29 01:24:17;;;;;;;0.10;0.10;;;;;;;;;;5068699;28;20226;-78
2023/06/29 01:26:47;;;;;;;0.10;0.10;;;;;;;;;;5078940;28;20251;-77
2023/06/29 01:29:14;;;;;;;0.00;0.00;;;;;;;;;;5068656;28;20286;-77
2023/06/29 01:31:40;;;;;;;0.10;0.10;;;;;;;;;;5078356;28;20312;-77
2023/06/29 01:34:07;;;;;;;0.00;0.00;;;;;;;;;;5070341;28;20205;-78
2023/06/29 01:36:38;;;;;;;0.00;0.00;;;;;;;;;;5076146;28;20585;-78
2023/06/29 01:39:07;;;;;;;0.00;0.00;;;;;;;;;;5071253;28;20217;-77
2023/06/29 01:41:37;;;;;;;0.10;0.10;;;;;;;;;;5076238;28;20244;-77
2023/06/29 01:44:06;;;;;;;0.10;0.10;;;;;;;;;;5071704;28;20261;-77
2023/06/29 01:46:33;;;;;;;0.10;0.10;;;;;;;;;;5075691;28;20241;-77
2023/06/29 01:48:59;;;;;;;0.00;0.00;;;;;;;;;;5072892;28;20241;-78
2023/06/29 01:51:26;;;;;;;0.10;0.10;;;;;;;;;;5074028;28;20303;-77
2023/06/29 01:53:53;;;;;;;0.08;0.08;;;;;;;;;;5074483;28;20241;-78
2023/06/29 01:56:20;;;;;;;0.10;0.10;;;;;;;;;;5072417;28;20253;-77
2023/06/29 01:58:46;;;;;;;0.00;0.00;;;;;;;;;;5076328;28;20202;-78
2023/06/29 02:01:14;;;;;;;0.03;0.03;;;;;;;;;;5070276;28;20251;-77
2023/06/29 02:03:50;;;;;;;0.10;0.10;;;;;;;;;;5078003;28;20310;-77
2023/06/29 02:06:16;;;;;;;0.08;0.08;;;;;;;;;;5071430;28;20453;-78
2023/06/29 02:08:43;;;;;;;0.05;0.05;;;;;;;;;;5076863;28;20228;-77
2023/06/29 02:11:09;;;;;;;0.00;0.00;;;;;;;;;;5069581;28;20245;-77
2023/06/29 02:13:35;;;;;;;0.03;0.03;;;;;;;;;;5078557;28;20280;-77
2023/06/29 02:16:02;;;;;;;0.00;0.00;;;;;;;;;;5067406;28;20303;-77
2023/06/29 02:18:31;;;;;;;0.10;0.10;;;;;;;;;;5080775;28;20244;-78
2023/06/29 02:20:57;;;;;;;0.00;0.00;;;;;;;;;;5066047;28;20262;-78
2023/06/29 02:23:24;;;;;;;0.10;0.10;;;;;;;;;;5081696;28;20307;-77
2023/06/29 02:25:50;;;;;;;0.10;0.10;;;;;;;;;;5064350;28;20239;-77
2023/06/29 02:28:16;;;;;;;0.00;0.00;;;;;;;;;;5083864;28;20206;-77
2023/06/29 02:30:43;;;;;;;0.10;0.10;;;;;;;;;;5062155;28;20240;-78
2023/06/29 02:33:09;;;;;;;0.03;0.03;;;;;;;;;;5085798;28;20211;-77
2023/06/29 02:35:37;;;;;;;0.08;0.08;;;;;;;;;;5059980;28;20299;-77
2023/06/29 02:38:03;;;;;;;0.08;0.08;;;;;;;;;;5087607;28;20215;-78
2023/06/29 02:40:29;;;;;;;0.00;0.00;;;;;;;;;;5058590;28;20308;-77
2023/06/29 02:42:56;;;;;;;0.03;0.03;;;;;;;;;;5089337;28;20278;-78
2023/06/29 02:45:22;;;;;;;0.10;0.10;;;;;;;;;;5056438;28;20205;-77
2023/06/29 02:47:48;;;;;;;0.10;0.10;;;;;;;;;;5093854;28;20239;-78
2023/06/29 02:50:15;;;;;;;0.00;0.00;;;;;;;;;;5057766;28;20252;-77
2023/06/29 02:52:42;;;;;;;0.10;0.10;;;;;;;;;;5096801;28;20237;-78
2023/06/29 02:55:09;;;;;;;0.10;0.10;;;;;;;;;;5057762;28;20276;-77
2023/06/29 02:57:36;;;;;;;0.10;0.10;;;;;;;;;;5098205;28;20247;-77
2023/06/29 03:00:03;;;;;;;0.10;0.10;;;;;;;;;;5065920;28;20246;-77
2023/06/29 03:02:29;;;;;;;0.30;0.30;;;;;;;;;;5088257;28;20263;-78
2023/06/29 03:04:56;;;;;;;0.10;0.10;;;;;;;;;;5065960;28;20205;-78
2023/06/29 03:07:22;;;;;;;0.10;0.10;;;;;;;;;;5088340;28;20334;-78
2023/06/29 03:09:50;;;;;;;0.10;0.10;;;;;;;;;;5065638;28;20264;-77
2023/06/29 03:12:16;;;;;;;0.10;0.10;;;;;;;;;;5088250;28;20441;-78
2023/06/29 03:14:42;;;;;;;0.10;0.10;;;;;;;;;;5065752;28;20265;-78
2023/06/29 03:17:09;;;;;;;0.10;0.10;;;;;;;;;;5088146;28;20472;-77
2023/06/29 03:19:35;;;;;;;0.10;0.10;;;;;;;;;;5065649;28;20268;-77
2023/06/29 03:22:02;;;;;;;0.10;0.10;;;;;;;;;;5086291;28;20306;-77
2023/06/29 03:24:28;;;;;;;0.03;0.03;;;;;;;;;;5067367;28;20231;-78
2023/06/29 03:26:56;;;;;;;1.17;1.17;;;;;;;;;;5084224;28;20244;-78
2023/06/29 03:29:22;;;;;;;0.03;0.03;;;;;;;;;;5068620;28;20258;-78
2023/06/29 03:31:48;;;;;;;0.00;0.00;;;;;;;;;;5082424;28;20308;-78
2023/06/29 03:34:15;;;;;;;0.10;0.10;;;;;;;;;;5070537;28;20243;-77
2023/06/29 03:36:41;;;;;;;0.10;0.10;;;;;;;;;;5080282;28;20324;-78
2023/06/29 03:39:07;;;;;;;0.10;0.10;;;;;;;;;;5072610;28;20233;-77
2023/06/29 03:41:34;;;;;;;0.03;0.03;;;;;;;;;;5078431;28;20310;-77
2023/06/29 03:44:01;;;;;;;0.03;0.03;;;;;;;;;;5074453;28;20458;-77
2023/06/29 03:46:28;;;;;;;0.10;0.10;;;;;;;;;;5076662;28;20307;-78
2023/06/29 03:48:54;;;;;;;0.10;0.10;;;;;;;;;;5075618;28;20207;-78
2023/06/29 03:51:20;;;;;;;0.00;0.00;;;;;;;;;;5074592;28;20466;-77
2023/06/29 03:53:47;;;;;;;0.10;0.10;;;;;;;;;;5077993;28;20454;-77
2023/06/29 03:56:13;;;;;;;0.10;0.10;;;;;;;;;;5069818;28;20453;-77
2023/06/29 03:58:39;;;;;;;0.10;0.10;;;;;;;;;;5082052;28;20397;-78
2023/06/29 04:01:07;;;;;;;0.68;0.68;;;;;;;;;;5069410;28;20486;-77
2023/06/29 04:03:33;;;;;;;0.00;0.00;;;;;;;;;;5082191;28;20205;-77
2023/06/29 04:06:00;;;;;;;0.10;0.10;;;;;;;;;;5068721;28;20255;-78
2023/06/29 04:08:26;;;;;;;0.00;0.00;;;;;;;;;;5083010;28;20218;-78
2023/06/29 04:10:53;;;;;;;0.10;0.10;;;;;;;;;;5066766;28;20563;-78
2023/06/29 04:13:19;;;;;;;0.10;0.10;;;;;;;;;;5084866;28;20360;-77
2023/06/29 04:15:46;;;;;;;0.10;0.10;;;;;;;;;;5064900;28;20262;-77
2023/06/29 04:18:13;;;;;;;0.10;0.10;;;;;;;;;;5086727;28;20417;-78
2023/06/29 04:20:40;;;;;;;0.10;0.10;;;;;;;;;;5062939;28;20302;-78
2023/06/29 04:23:06;;;;;;;0.00;0.00;;;;;;;;;;5088040;28;20276;-78
2023/06/29 04:25:33;;;;;;;0.00;0.00;;;;;;;;;;5061174;28;20567;-78
2023/06/29 04:28:00;;;;;;;0.03;0.03;;;;;;;;;;5089768;28;20204;-78
2023/06/29 04:30:26;;;;;;;0.10;0.10;;;;;;;;;;5059280;28;20533;-77
2023/06/29 04:32:52;;;;;;;0.10;0.10;;;;;;;;;;5091720;28;20456;-77
2023/06/29 04:35:20;;;;;;;0.10;0.10;;;;;;;;;;5057304;28;20448;-77
2023/06/29 04:37:47;;;;;;;0.10;0.10;;;;;;;;;;5093481;28;20400;-77
2023/06/29 04:40:14;;;;;;;0.10;0.10;;;;;;;;;;5055256;28;20267;-77
2023/06/29 04:42:43;;;;;;;0.10;0.10;;;;;;;;;;5094944;28;20242;-78
2023/06/29 04:45:12;;;;;;;0.00;0.00;;;;;;;;;;5054353;28;20212;-76
2023/06/29 04:47:40;;;;;;;0.10;0.10;;;;;;;;;;5095291;28;20276;-77
2023/06/29 04:50:07;;;;;;;0.10;0.10;;;;;;;;;;5063384;28;20223;-74
2023/06/29 04:52:36;;;;;;;0.10;0.10;;;;;;;;;;5095460;28;20224;-77
2023/06/29 04:55:03;;;;;;;0.10;0.10;;;;;;;;;;5064218;28;20204;-77
2023/06/29 04:57:29;;;;;;;0.00;0.00;;;;;;;;;;5086169;28;20284;-77
2023/06/29 04:59:56;;;;;;;0.00;0.00;;;;;;;;;;5063798;28;20258;-77
2023/06/29 05:02:22;;;;;;;0.00;0.00;;;;;;;;;;5086158;28;20479;-78
2023/06/29 05:04:49;;;;;;;0.00;0.00;;;;;;;;;;5064173;28;20438;-78
2023/06/29 05:07:15;;;;;;;0.10;0.10;;;;;;;;;;5085794;28;20246;-73
2023/06/29 05:09:43;;;;;;;0.10;0.10;;;;;;;;;;5062956;28;20494;-79
2023/06/29 05:12:10;;;;;;;0.10;0.10;;;;;;;;;;5085841;28;20283;-78
2023/06/29 05:14:36;;;;;;;0.10;0.10;;;;;;;;;;5063660;28;20228;-78
2023/06/29 05:17:04;;;;;;;0.00;0.00;;;;;;;;;;5084516;28;20238;-78
2023/06/29 05:19:31;;;;;;;0.10;0.10;;;;;;;;;;5064731;28;20211;-78
2023/06/29 05:21:58;;;;;;;0.10;0.10;;;;;;;;;;5083002;28;20243;-77
2023/06/29 05:24:24;;;;;;;0.10;0.10;;;;;;;;;;5066077;28;20228;-78
2023/06/29 05:26:52;;;;;;;0.10;0.10;;;;;;;;;;5080996;28;20560;-78
2023/06/29 05:29:18;;;;;;;0.00;0.00;;;;;;;;;;5067878;28;20403;-78
2023/06/29 05:31:45;;;;;;;0.10;0.10;;;;;;;;;;5079337;28;20235;-78
2023/06/29 05:34:11;;;;;;;0.10;0.10;;;;;;;;;;5069409;28;20239;-78
2023/06/29 05:36:37;;;;;;;0.03;0.03;;;;;;;;;;5077515;28;20238;-79
2023/06/29 05:39:05;;;;;;;0.10;0.10;;;;;;;;;;5071707;28;20206;-79
2023/06/29 05:41:31;;;;;;;0.10;0.10;;;;;;;;;;5075698;28;20247;-79
2023/06/29 05:44:00;;;;;;;0.00;0.00;;;;;;;;;;5073070;28;20205;-79
2023/06/29 05:46:26;;;;;;;0.00;0.00;;;;;;;;;;5074249;28;20299;-79
2023/06/29 05:48:53;;;;;;;0.00;0.00;;;;;;;;;;5074536;28;20447;-79
2023/06/29 05:51:19;;;;;;;0.30;0.30;;;;;;;;;;5072122;28;20237;-75
2023/06/29 05:53:47;;;;;;;0.10;0.10;;;;;;;;;;5076302;28;20243;-76
2023/06/29 05:56:13;;;;;;;0.08;0.08;;;;;;;;;;5070371;28;20248;-75
2023/06/29 05:58:39;;;;;;;0.10;0.10;;;;;;;;;;5077591;28;20233;-76
2023/06/29 06:01:07;;;;;;;0.10;0.10;;;;;;;;;;5067517;28;20251;-76
2023/06/29 06:03:35;;;;;;;0.00;0.00;;;;;;;;;;5080220;28;20212;-77
2023/06/29 06:06:01;;;;;;;0.08;0.08;;;;;;;;;;5067227;28;20240;-76
2023/06/29 06:08:28;;;;;;;0.10;0.10;;;;;;;;;;5080646;28;20226;-76
2023/06/29 06:10:54;;;;;;;0.10;0.10;;;;;;;;;;5065333;28;20240;-76
2023/06/29 06:13:20;;;;;;;0.65;0.65;;;;;;;;;;5082828;28;20217;-76
2023/06/29 06:15:47;;;;;;;0.00;0.00;;;;;;;;;;5063687;28;20241;-76
2023/06/29 06:18:14;;;;;;;0.00;0.00;;;;;;;;;;5084839;28;20206;-76
2023/06/29 06:20:41;;;;;;;0.00;0.00;;;;;;;;;;5062663;28;20255;-76
2023/06/29 06:23:07;;;;;;;0.10;0.10;;;;;;;;;;5090024;28;20238;-76
2023/06/29 06:25:34;;;;;;;0.03;0.03;;;;;;;;;;5063540;28;20240;-76
2023/06/29 06:28:00;;;;;;;0.38;0.38;;;;;;;;;;5091927;28;20205;-76
2023/06/29 06:30:26;;;;;;;0.00;0.00;;;;;;;;;;5061525;28;20223;-76
2023/06/29 06:32:53;;;;;;;0.00;0.00;;;;;;;;;;5093849;28;20205;-76
2023/06/29 06:35:21;;;;;;;0.08;0.08;;;;;;;;;;5059577;28;20234;-76
2023/06/29 06:37:47;;;;;;;0.10;0.10;;;;;;;;;;5095402;28;20216;-76
2023/06/29 06:40:15;;;;;;;0.00;0.00;;;;;;;;;;5057987;28;20203;-75
2023/06/29 06:42:42;;;;;;;0.00;0.00;;;;;;;;;;5096754;28;20397;-76
2023/06/29 06:45:09;;;;;;;0.08;0.08;;;;;;;;;;5059839;28;20247;-75
2023/06/29 06:47:36;;;;;;;0.00;0.00;;;;;;;;;;5097756;28;20277;-77
2023/06/29 06:50:03;;;;;;;0.10;0.10;;;;;;;;;;5066385;28;20238;-76
2023/06/29 06:52:31;;;;;;;0.10;0.10;;;;;;;;;;5088333;28;20632;-76
2023/06/29 06:54:57;;;;;;;0.00;0.00;;;;;;;;;;5066383;28;20273;-76
2023/06/29 06:57:27;;;;;;;0.00;0.00;;;;;;;;;;5088362;28;20274;-74
2023/06/29 06:59:53;;;;;;;0.10;0.10;;;;;;;;;;5065944;28;20230;-76
2023/06/29 07:02:20;;;;;;;0.00;0.00;;;;;;;;;;5088274;28;20263;-76
2023/06/29 07:04:47;;;;;;;0.00;0.00;;;;;;;;;;5065975;28;20205;-76
2023/06/29 07:07:13;;;;;;;0.00;0.00;;;;;;;;;;5088177;28;20337;-76
2023/06/29 07:09:41;;;;;;;0.08;0.08;;;;;;;;;;5065973;28;20246;-76
2023/06/29 07:12:09;;;;;;;0.00;0.00;;;;;;;;;;5087874;28;20258;-75
2023/06/29 07:14:35;;;;;;;0.00;0.00;;;;;;;;;;5066075;28;20240;-76
2023/06/29 07:17:02;;;;;;;0.00;0.00;;;;;;;;;;5086239;28;20447;-74
2023/06/29 07:19:28;;;;;;;0.00;0.00;;;;;;;;;;5067554;28;20212;-76
2023/06/29 07:21:54;;;;;;;0.10;0.10;;;;;;;;;;5083978;28;20247;-76
2023/06/29 07:24:21;;;;;;;0.10;0.10;;;;;;;;;;5069377;28;20395;-74
2023/06/29 07:26:50;;;;;;;0.00;0.00;;;;;;;;;;5082314;28;20262;-75
2023/06/29 07:29:16;;;;;;;0.00;0.00;;;;;;;;;;5070721;28;20461;-74
2023/06/29 07:31:43;;;;;;;0.10;0.10;;;;;;;;;;5080200;28;20508;-75
2023/06/29 07:34:09;;;;;;;0.00;0.00;;;;;;;;;;5071783;28;20204;-75
2023/06/29 07:36:37;;;;;;;0.00;0.00;;;;;;;;;;5078743;28;20239;-74
2023/06/29 07:39:03;;;;;;;0.00;0.00;;;;;;;;;;5073710;28;20206;-74
2023/06/29 07:41:31;;;;;;;1.08;1.08;;;;;;;;;;5076997;28;20242;-74
2023/06/29 07:43:59;;;;;;;0.10;0.10;;;;;;;;;;5075040;28;20206;-74
2023/06/29 07:46:26;;;;;;;0.00;0.00;;;;;;;;;;5076014;28;20561;-74
2023/06/29 07:48:53;;;;;;;0.00;0.00;;;;;;;;;;5076296;28;20275;-75
2023/06/29 07:51:20;;;;;;;0.10;0.10;;;;;;;;;;5074161;28;20260;-75
2023/06/29 07:53:46;;;;;;;0.00;0.00;;;;;;;;;;5077724;28;20206;-74
2023/06/29 07:56:12;;;;;;;0.00;0.00;;;;;;;;;;5072462;28;20560;-74
2023/06/29 07:58:39;;;;;;;0.00;0.00;;;;;;;;;;5079954;28;20235;-74
2023/06/29 08:01:06;;;;;;;0.05;0.05;;;;;;;;;;5070301;28;20253;-74
2023/06/29 08:03:33;;;;;;;0.00;0.00;;;;;;;;;;5081618;28;20429;-74
2023/06/29 08:05:59;;;;;;;0.10;0.10;;;;;;;;;;5068545;28;20264;-74
2023/06/29 08:08:28;;;;;;;0.10;0.10;;;;;;;;;;5082815;28;20212;-75
2023/06/29 08:10:55;;;;;;;0.10;0.10;;;;;;;;;;5067401;28;20293;-75
2023/06/29 08:13:22;;;;;;;0.08;0.08;;;;;;;;;;5084111;28;20246;-74
2023/06/29 08:15:49;;;;;;;0.00;0.00;;;;;;;;;;5065681;28;20242;-75
2023/06/29 08:18:17;;;;;;;0.00;0.00;;;;;;;;;;5085635;28;20335;-75
2023/06/29 08:20:46;;;;;;;0.10;0.10;;;;;;;;;;5064077;28;20309;-74
2023/06/29 08:23:12;;;;;;;0.00;0.00;;;;;;;;;;5086309;28;20208;-75
2023/06/29 08:25:38;;;;;;;0.00;0.00;;;;;;;;;;5062916;28;20483;-75
2023/06/29 08:28:05;;;;;;;0.00;0.00;;;;;;;;;;5088209;28;20238;-75
2023/06/29 08:30:31;;;;;;;0.00;0.00;;;;;;;;;;5060586;28;20321;-75
2023/06/29 08:32:58;;;;;;;0.10;0.10;;;;;;;;;;5090280;28;20207;-74
2023/06/29 08:35:25;;;;;;;0.00;0.00;;;;;;;;;;5058777;28;20286;-76
2023/06/29 08:37:52;;;;;;;0.05;0.05;;;;;;;;;;5091856;28;20207;-74
2023/06/29 08:40:19;;;;;;;0.00;0.00;;;;;;;;;;5057141;28;20231;-74
2023/06/29 08:42:46;;;;;;;0.00;0.00;;;;;;;;;;5093219;28;20394;-75
2023/06/29 08:45:12;;;;;;;0.00;0.00;;;;;;;;;;5055472;28;20212;-74
2023/06/29 08:47:39;;;;;;;0.00;0.00;;;;;;;;;;5095070;28;20238;-75
2023/06/29 08:50:06;;;;;;;0.10;0.10;;;;;;;;;;5064255;28;20449;-75
2023/06/29 08:52:35;;;;;;;0.00;0.00;;;;;;;;;;5086218;28;20478;-75
2023/06/29 08:55:01;;;;;;;0.10;0.10;;;;;;;;;;5064179;28;20271;-75
2023/06/29 08:57:28;;;;;;;0.00;0.00;;;;;;;;;;5086163;28;20595;-75
2023/06/29 08:59:55;;;;;;;0.00;0.00;;;;;;;;;;5063728;28;20262;-75
2023/06/29 09:02:21;;;;;;;0.10;0.10;;;;;;;;;;5086013;28;20245;-75
2023/06/29 09:04:49;;;;;;;0.00;0.00;;;;;;;;;;5064084;28;20451;-75
2023/06/29 09:07:15;;;;;;;0.00;0.00;;;;;;;;;;5085876;28;20250;-76
2023/06/29 09:09:43;;;;;;;0.00;0.00;;;;;;;;;;5063540;28;20212;-76
2023/06/29 09:12:10;;;;;;;0.00;0.00;;;;;;;;;;5085829;28;20484;-75
2023/06/29 09:14:43;;;;;;;0.00;0.00;;;;;;;;;;5063668;28;20211;-74
2023/06/29 09:17:12;;;;;;;0.63;0.63;;;;;;;;;;5085923;28;20550;-75
2023/06/29 09:19:42;;;;;;;0.00;0.00;;;;;;;;;;5063572;28;20242;-76
2023/06/29 09:22:08;;;;;;;0.00;0.00;;;;;;;;;;5085560;28;20230;-75
2023/06/29 09:24:35;;;;;;;0.00;0.00;;;;;;;;;;5063458;28;20274;-76
2023/06/29 09:27:03;;;;;;;0.00;0.00;;;;;;;;;;5083960;28;20408;-76
2023/06/29 09:29:29;;;;;;;0.00;0.00;;;;;;;;;;5064739;28;20231;-75
2023/06/29 09:31:56;;;;;;;0.00;0.00;;;;;;;;;;5082127;28;20314;-76
2023/06/29 09:34:25;;;;;;;0.00;0.00;;;;;;;;;;5066393;28;20204;-74
2023/06/29 09:36:51;;;;;;;0.00;0.00;;;;;;;;;;5081119;28;20245;-75
2023/06/29 09:39:18;;;;;;;0.10;0.10;;;;;;;;;;5067852;28;20211;-76
2023/06/29 09:41:45;;;;;;;0.00;0.00;;;;;;;;;;5078999;28;20239;-74
2023/06/29 09:44:13;;;;;;;0.00;0.00;;;;;;;;;;5069273;28;20229;-75
2023/06/29 09:46:40;;;;;;;0.00;0.00;;;;;;;;;;5077738;28;20448;-76
2023/06/29 09:49:08;;;;;;;0.00;0.00;;;;;;;;;;5070728;28;20515;-75
2023/06/29 09:51:34;;;;;;;0.00;0.00;;;;;;;;;;5075985;28;20234;-75
2023/06/29 09:54:01;;;;;;;0.52;0.52;;;;;;;;;;5072459;28;20208;-74
2023/06/29 09:56:28;;;;;;;0.00;0.00;;;;;;;;;;5076831;28;20578;-75
2023/06/29 09:58:55;;;;;;;0.00;0.00;;;;;;;;;;5078044;28;20204;-75
2023/06/29 10:01:26;;;;;;;0.00;0.00;;;;;;;;;;5077028;28;20246;-75
2023/06/29 10:03:52;;;;;;;0.00;0.00;;;;;;;;;;5078423;28;20192;-75
2023/06/29 10:06:21;;;;;;;0.00;0.00;;;;;;;;;;5075518;28;20428;-75
2023/06/29 10:08:51;;;;;;;0.00;0.00;;;;;;;;;;5079894;28;20227;-75
2023/06/29 10:11:17;;;;;;;0.00;0.00;;;;;;;;;;5075371;28;20306;-75
2023/06/29 10:13:46;;;;;;;0.00;0.00;;;;;;;;;;5080814;28;20275;-75
2023/06/29 10:16:13;;;;;;;0.10;0.10;;;;;;;;;;5074309;28;20276;-75
2023/06/29 10:18:41;;;;;;;0.00;0.00;;;;;;;;;;5081388;28;20271;-74
2023/06/29 10:21:08;;;;;;;0.00;0.00;;;;;;;;;;5073128;28;20245;-74
2023/06/29 10:23:35;;;;;;;0.00;0.00;;;;;;;;;;5082635;28;20216;-74
2023/06/29 10:26:03;;;;;;;0.00;0.00;;;;;;;;;;5070961;28;20269;-75
2023/06/29 10:28:30;;;;;;;0.00;0.00;;;;;;;;;;5084296;28;20267;-74
2023/06/29 10:30:58;;;;;;;0.08;0.08;;;;;;;;;;5069463;28;20646;-74
2023/06/29 10:33:25;;;;;;;0.00;0.00;;;;;;;;;;5085363;28;20271;-74
2023/06/29 10:35:55;;;;;;;0.00;0.00;;;;;;;;;;5068242;28;20459;-75
2023/06/29 10:38:21;;;;;;;0.00;0.00;;;;;;;;;;5086377;28;20242;-74
2023/06/29 10:40:48;;;;;;;0.00;0.00;;;;;;;;;;5067003;28;20445;-74
2023/06/29 10:43:14;;;;;;;0.00;0.00;;;;;;;;;;5088166;28;20201;-75
2023/06/29 10:45:41;;;;;;;0.00;0.00;;;;;;;;;;5064901;28;20242;-74
2023/06/29 10:48:08;;;;;;;0.00;0.00;;;;;;;;;;5089884;28;20211;-75
2023/06/29 10:50:40;;;;;;;0.00;0.00;;;;;;;;;;5062755;28;20239;-75
2023/06/29 10:53:08;;;;;;;0.00;0.00;;;;;;;;;;5090268;28;20233;-75
2023/06/29 10:55:56;;;;;;;0.00;0.00;;;;;;;;;;5063215;28;20238;-75
2023/06/29 10:58:23;;;;;;;0.00;0.00;;;;;;;;;;5079190;28;20212;-75
2023/06/29 11:00:51;;;;;;;0.00;0.00;;;;;;;;;;5067009;28;20258;-74
2023/06/29 11:03:17;;;;;;;0.10;0.10;;;;;;;;;;5086979;28;20496;-75
2023/06/29 11:05:44;;;;;;;0.10;0.10;;;;;;;;;;5065508;28;20275;-75
2023/06/29 11:08:12;;;;;;;0.00;0.00;;;;;;;;;;5087008;28;20208;-76
2023/06/29 11:10:38;;;;;;;0.00;0.00;;;;;;;;;;5064191;28;20281;-76
2023/06/29 11:13:09;;;;;;;0.10;0.10;;;;;;;;;;5089864;28;20255;-76
2023/06/29 11:15:35;;;;;;;0.00;0.00;;;;;;;;;;5063237;28;20238;-76
2023/06/29 11:18:04;;;;;;;0.00;0.00;;;;;;;;;;5090718;28;20255;-74
2023/06/29 11:20:30;;;;;;;0.00;0.00;;;;;;;;;;5061580;28;20441;-76
2023/06/29 11:22:59;;;;;;;0.00;0.00;;;;;;;;;;5092189;28;20391;-73
2023/06/29 11:25:27;;;;;;;0.00;0.00;;;;;;;;;;5060391;28;20207;-75
2023/06/29 11:27:54;;;;;;;0.00;0.00;;;;;;;;;;5092779;28;20275;-74
2023/06/29 11:30:20;;;;;;;0.00;0.00;;;;;;;;;;5058306;28;20232;-75
2023/06/29 11:32:48;;;;;;;0.00;0.00;;;;;;;;;;5094768;28;20291;-75
2023/06/29 11:35:15;;;;;;;0.00;0.00;;;;;;;;;;5057363;28;20231;-75
2023/06/29 11:37:41;;;;;;;0.00;0.00;;;;;;;;;;5095877;28;20211;-75
2023/06/29 11:40:16;;;;;;;0.00;0.00;;;;;;;;;;5062906;28;20204;-75
2023/06/29 11:42:44;;;;;;;0.00;0.00;;;;;;;;;;5065692;28;20274;-75
2023/06/29 11:45:11;;;;;;;0.00;0.00;;;;;;;;;;5055833;28;20211;-75
2023/06/29 11:47:37;;;;;;;0.00;0.00;;;;;;;;;;5096878;28;20285;-73
2023/06/29 11:50:07;;;;;;;0.00;0.00;;;;;;;;;;5065206;28;20204;-72
2023/06/29 11:52:34;;;;;;;0.00;0.00;;;;;;;;;;5053783;28;20527;-72
2023/06/29 11:55:00;;;;;;;0.00;0.00;;;;;;;;;;5065433;28;20431;-73
2023/06/29 11:57:27;;;;;;;7.13;0.35;;;;;;;;;;5087259;28;20265;-72
2023/06/29 11:59:54;;;;;;;0.00;0.00;;;;;;;;;;5065250;28;20442;-72
2023/06/29 12:02:21;;;;;;;0.00;0.00;;;;;;;;;;5087328;28;20265;-77
2023/06/29 12:04:55;;;;;;;0.20;0.17;;;;;;;;;;5064905;28;20271;-77
2023/06/29 12:07:34;;;;;;;0.32;0.32;;;;;;;;;;5086945;28;20254;-77
2023/06/29 12:10:02;;;;;;;0.20;0.20;;;;;;;;;;5064719;28;20461;-77
2023/06/29 12:12:28;;;;;;;0.20;0.20;;;;;;;;;;5086982;28;20230;-76
2023/06/29 12:14:56;;;;;;;0.00;0.00;;;;;;;;;;5064781;28;20222;-77
2023/06/29 12:17:23;;;;;;;0.00;0.00;;;;;;;;;;5086963;28;20332;-75
2023/06/29 12:19:51;;;;;;;0.00;0.00;;;;;;;;;;5064638;28;20408;-76
2023/06/29 12:22:18;;;;;;;0.00;0.00;;;;;;;;;;5086593;28;20306;-76
2023/06/29 12:24:49;;;;;;;0.00;0.00;;;;;;;;;;5064809;28;20204;-76
2023/06/29 12:27:15;;;;;;;0.00;0.00;;;;;;;;;;5086790;28;20443;-76
2023/06/29 12:29:41;;;;;;;0.00;0.00;;;;;;;;;;5064442;28;20276;-76
2023/06/29 12:32:12;;;;;;;0.10;0.10;;;;;;;;;;5087266;28;20254;-76
2023/06/29 12:34:38;;;;;;;0.00;0.00;;;;;;;;;;5064328;28;20199;-75
2023/06/29 12:37:05;;;;;;;0.10;0.10;;;;;;;;;;5085569;28;20343;-74
2023/06/29 12:39:31;;;;;;;0.00;0.00;;;;;;;;;;5065441;28;20232;-72
2023/06/29 12:41:57;;;;;;;0.00;0.00;;;;;;;;;;5083172;28;20306;-72
2023/06/29 12:44:24;;;;;;;0.00;0.00;;;;;;;;;;5067020;28;20250;-71
2023/06/29 12:46:50;;;;;;;0.00;0.00;;;;;;;;;;5081354;28;20257;-72
2023/06/29 12:49:18;;;;;;;0.00;0.00;;;;;;;;;;5068731;28;20267;-73
2023/06/29 12:51:45;;;;;;;0.00;0.00;;;;;;;;;;5080074;28;20250;-73
2023/06/29 12:54:12;;;;;;;0.00;0.00;;;;;;;;;;5069978;28;20235;-72
2023/06/29 12:56:39;;;;;;;0.00;0.00;;;;;;;;;;5078438;28;20253;-72
2023/06/29 12:59:05;;;;;;;0.00;0.00;;;;;;;;;;5071494;28;20204;-73
2023/06/29 13:01:34;;;;;;;0.00;0.00;;;;;;;;;;5076204;28;20301;-73
2023/06/29 13:04:00;;;;;;;0.00;0.00;;;;;;;;;;5072522;28;20228;-72
2023/06/29 13:06:29;;;;;;;0.10;0.10;;;;;;;;;;5074953;28;20301;-72
2023/06/29 13:08:56;;;;;;;0.00;0.00;;;;;;;;;;5074087;28;20250;-72
2023/06/29 13:11:22;;;;;;;0.00;0.00;;;;;;;;;;5073275;28;20250;-73
2023/06/29 13:13:48;;;;;;;0.00;0.00;;;;;;;;;;5075880;28;20252;-73
2023/06/29 13:16:15;;;;;;;0.00;0.00;;;;;;;;;;5071173;28;20269;-74
2023/06/29 13:18:41;;;;;;;0.00;0.00;;;;;;;;;;5077673;28;20220;-73
2023/06/29 13:21:10;;;;;;;0.00;0.00;;;;;;;;;;5069409;28;20280;-73
2023/06/29 13:23:37;;;;;;;0.00;0.00;;;;;;;;;;5078950;28;20271;-74
2023/06/29 13:26:04;;;;;;;0.00;0.00;;;;;;;;;;5068526;28;20439;-73
2023/06/29 13:28:33;;;;;;;0.00;0.00;;;;;;;;;;5080216;28;20218;-73
2023/06/29 13:31:03;;;;;;;0.00;0.00;;;;;;;;;;5065790;28;20242;-73
2023/06/29 13:33:31;;;;;;;0.00;0.00;;;;;;;;;;5080696;28;20448;-75
2023/06/29 13:35:57;;;;;;;0.00;0.00;;;;;;;;;;5065988;28;20261;-75
2023/06/29 13:38:24;;;;;;;0.00;0.00;;;;;;;;;;5082769;28;20215;-76
2023/06/29 13:40:52;;;;;;;0.10;0.10;;;;;;;;;;5062891;28;20253;-74
2023/06/29 13:43:18;;;;;;;0.00;0.00;;;;;;;;;;5084334;28;20274;-75
2023/06/29 13:45:44;;;;;;;0.00;0.00;;;;;;;;;;5062743;28;20321;-74
2023/06/29 13:48:11;;;;;;;0.00;0.00;;;;;;;;;;5086139;28;20208;-76
2023/06/29 13:50:37;;;;;;;0.00;0.00;;;;;;;;;;5061058;28;20238;-76
2023/06/29 13:53:04;;;;;;;0.00;0.00;;;;;;;;;;5087552;28;20488;-76
2023/06/29 13:55:30;;;;;;;0.00;0.00;;;;;;;;;;5059506;28;20250;-76
2023/06/29 13:58:00;;;;;;;0.00;0.00;;;;;;;;;;5088995;28;20235;-76
2023/06/29 14:00:27;;;;;;;0.10;0.10;;;;;;;;;;5057709;28;20295;-75
2023/06/29 14:02:53;;;;;;;0.00;0.00;;;;;;;;;;5090190;28;20212;-75
2023/06/29 14:05:20;;;;;;;0.00;0.00;;;;;;;;;;5056384;28;20210;-75
2023/06/29 14:07:46;;;;;;;0.00;0.00;;;;;;;;;;5092121;28;20373;-76
2023/06/29 14:10:13;;;;;;;0.00;0.00;;;;;;;;;;5053914;28;20212;-75
2023/06/29 14:12:39;;;;;;;0.00;0.00;;;;;;;;;;5093845;28;20243;-76
2023/06/29 14:15:08;;;;;;;0.00;0.00;;;;;;;;;;5062917;28;20204;-76
2023/06/29 14:17:34;;;;;;;0.00;0.00;;;;;;;;;;5071555;28;20211;-76
2023/06/29 14:20:00;;;;;;;0.00;0.00;;;;;;;;;;5082895;28;20210;-77
2023/06/29 14:22:27;;;;;;;0.00;0.00;;;;;;;;;;5086109;28;20254;-72
2023/06/29 14:24:53;;;;;;;0.00;0.00;;;;;;;;;;5062803;28;20235;-71
2023/06/29 14:27:20;;;;;;;0.00;0.00;;;;;;;;;;5085233;28;20258;-70
2023/06/29 14:29:46;;;;;;;0.00;0.00;;;;;;;;;;5063186;28;20204;-76
2023/06/29 14:32:14;;;;;;;0.00;0.00;;;;;;;;;;5084926;28;20265;-75
2023/06/29 14:34:42;;;;;;;0.00;0.00;;;;;;;;;;5063099;28;20211;-75
2023/06/29 14:37:11;;;;;;;0.00;0.00;;;;;;;;;;5085003;28;20570;-76
2023/06/29 14:39:38;;;;;;;0.03;0.03;;;;;;;;;;5062847;28;20204;-74
2023/06/29 14:42:05;;;;;;;0.00;0.00;;;;;;;;;;5085673;28;20238;-77